Meteo Giornale » Osservazioni meteo Italia » Cagliari-Elmas
ore: 00:50 - Osservazioni Meteo Cagliari-Elmas
Lat. 39° 15' N Lon. 9° 4' E Alt. 4 metri s.l.m.
26 °C
Sereno
Temp. 24 Ore
20 °C
33 °C
Nord
16.7 Km/h
Dew point 21 °C
Umidità 73 %
Visibilità 10 Km
Il sole sorge alle ore 06:52
Il sole tramonta alle ore 19:55
| Data e Ora | Cielo e Fenomeni | T °C | DP °C | Um. % | Pres. hPa | Vis. km | Vento km/h | |
|---|---|---|---|---|---|---|---|---|
| Oggi h: 00:50 | Sereno | 26 | 21 | 73 | 1018 | 10 | N 16.7 | |
| Oggi h: 00:20 | Sereno | 26 | 21 | 73 | 1018 | 10 | N/NE 14.8 | |
| Ieri h: 23:50 | Sereno | 26 | 20 | 69 | 1018 | 10 | N 9.3 | |
| Ieri h: 23:20 | Sereno | 26 | 20 | 69 | 1018 | 10 | N/NO 11.1 | |
| Ieri h: 22:50 | Sereno | 27 | 20 | 65 | 1018 | 10 | N 14.8 | |
| Ieri h: 22:20 | Sereno | 27 | 20 | 65 | 1018 | 10 | N/NE 18.5 | |
| Ieri h: 21:50 | Sereno | 28 | 19 | 58 | 1017 | 10 | N/NE 22.2 | |
| Ieri h: 21:20 | Sereno | 28 | 16 | 48 | 1017 | 10 | N/NE 20.3 | |
| Ieri h: 20:50 | Sereno | 29 | 16 | 45 | 1016 | 10 | N/NE 13 | |
| Ieri h: 20:20 | Sereno | 30 | 15 | 40 | 1016 | 10 | N/NE 14.8 | |
| Ieri h: 19:50 | Sereno | 31 | 15 | 37 | 1015 | 10 | N 13 | |
| Ieri h: 19:20 | Sereno | 31 | 20 | 52 | 1015 | 10 | E 11.1 | |
| Ieri h: 18:50 | Sereno | 32 | 19 | 46 | 1015 | 10 | SE 11.1 | |
| Ieri h: 17:50 | Sereno | 32 | 20 | 49 | 1016 | 10 | S/SE 14.8 | |
| Ieri h: 17:20 | Sereno | 33 | 20 | 46 | 1016 | 10 | S/SE 13 | |
| Ieri h: 16:50 | Sereno | 33 | 20 | 46 | 1016 | 10 | S 14.8 | |
| Ieri h: 16:20 | Sereno | 33 | 20 | 46 | 1016 | 10 | S/SE 16.7 | |
| Ieri h: 15:20 | Sereno | 32 | 21 | 52 | 1016 | 10 | S 18.5 | |
| Ieri h: 14:50 | Sereno | 32 | 21 | 52 | 1016 | 10 | S 18.5 | |
| Ieri h: 09:20 | Sereno | 27 | 17 | 54 | 1017 | 10 | N 16.7 | |
| Ieri h: 08:50 | Sereno | 24 | 18 | 69 | 1017 | 10 | N 13 | |
| Ieri h: 08:20 | Sereno | 23 | 18 | 73 | 1017 | 10 | N 5.5 | |
| Ieri h: 07:50 | Sereno | 22 | 18 | 78 | 1016 | 10 | NO 9.3 | |
| Ieri h: 07:20 | Sereno | 21 | 17 | 77 | 1016 | 10 | N 5.5 | |
| Ieri h: 06:50 | Sereno | 21 | 16 | 73 | 1015 | 10 | N 14.8 | |
| Ieri h: 06:20 | Sereno | 20 | 17 | 82 | 1015 | 10 | N/NO 20.3 | |
| Ieri h: 05:50 | Sereno | 21 | 17 | 77 | 1015 | 10 | N/NO 22.2 | |
| Ieri h: 05:20 | Sereno | 21 | 17 | 77 | 1015 | 10 | N/NO 18.5 | |
| Ieri h: 04:50 | Sereno | 22 | 18 | 78 | 1015 | 10 | N/NO 18.5 | |
| Ieri h: 04:20 | Sereno | 21 | 17 | 77 | 1015 | 10 | N 14.8 | |
| Ieri h: 03:50 | Sereno | 21 | 18 | 82 | 1015 | 10 | N 16.7 | |
| Ieri h: 03:20 | Sereno | 22 | 19 | 83 | 1016 | 10 | N/NO 14.8 | |
| Ieri h: 02:50 | Sereno | 22 | 18 | 78 | 1016 | 10 | N/NO 13 | |
| Ieri h: 02:20 | Sereno | 23 | 19 | 78 | 1016 | 10 | N/NO 13 | |
| Ieri h: 01:50 | Sereno | 23 | 20 | 83 | 1016 | 10 | N/NO 13 | |



